CST,Max TemperatureF,Mean TemperatureF,Min TemperatureF,Max Dew PointF,MeanDew PointF,Min DewpointF,Max Humidity, Mean Humidity, Min Humidity, Max Sea Level PressureIn, Mean Sea Level PressureIn, Min Sea Level PressureIn, Max VisibilityMiles, Mean VisibilityMiles, Min VisibilityMiles, Max Wind SpeedMPH, Mean Wind SpeedMPH, Max Gust SpeedMPH,PrecipitationIn, CloudCover, Events, WindDirDegrees
2013-12-1,71,70,68,59,56,52,73,64,56,30.25,30.14,30.02,10,10,10,16,8,18,0.00,4,,56
2013-12-2,78,74,69,63,61,57,73,67,57,30.01,29.90,29.84,10,10,10,13,7,24,0.00,2,,258
2013-12-3,86,78,71,72,65,61,89,68,48,29.90,29.85,29.81,10,10,10,18,6,26,0.00,3,,217
2013-12-4,78,76,75,75,73,70,94,87,78,29.99,29.93,29.87,10,9,6,18,8,28,0.00,3,,202
2013-12-5,78,78,77,75,74,73,94,91,83,30.07,30.02,29.98,10,6,5,12,7,23,0.00,4,,168
2013-12-6,80,78,75,75,74,73,100,90,79,30.11,30.05,29.99,8,6,4,16,7,24,0.00,4,,202
2013-12-7,77,72,66,73,68,64,100,92,88,30.21,30.16,30.10,10,7,3,20,11,23,0.00,8,,37
2013-12-8,78,76,73,72,71,68,94,83,69,30.15,30.09,30.03,10,10,8,20,12,32,0.00,3,,166
2013-12-9,82,78,73,73,73,72,100,86,74,30.11,30.06,30.03,10,9,2,16,8,29,0.00,4,,205
2013-12-10,77,68,59,73,60,50,94,81,68,30.26,30.18,30.07,10,10,7,25,13,32,0.00,6,,359
2013-12-11,68,65,62,57,55,46,73,69,49,30.33,30.28,30.22,10,10,10,24,15,30,0.00,6,,46
2013-12-12,66,63,60,57,49,43,73,57,48,30.39,30.34,30.30,10,10,10,22,16,29,0.00,4,,39
2013-12-13,73,68,64,64,54,46,73,61,52,30.28,30.16,29.99,10,10,10,21,17,25,0.00,6,,116
2013-12-14,75,72,68,73,68,59,94,84,64,29.98,29.92,29.87,10,7,0,30,11,43,0.00,7,Fog,251
2013-12-15,69,62,55,61,50,45,88,72,63,30.24,30.13,29.96,10,10,9,21,11,31,0.00,8,,334
2013-12-16,62,58,55,50,46,43,68,63,55,30.30,30.26,30.23,10,10,10,16,11,21,0.00,5,,37
2013-12-17,71,66,60,52,48,45,68,55,43,30.33,30.27,30.23,10,10,8,9,5,12,0.00,0,,28
2013-12-18,68,65,62,55,51,39,68,58,42,30.33,30.28,30.24,10,10,10,20,11,22,0.00,1,,77
2013-12-19,73,70,68,64,57,52,73,60,50,30.23,30.16,30.09,10,10,10,20,12,23,0.00,4,,160
2013-12-20,77,75,73,72,69,64,94,82,73,30.12,30.06,29.99,10,10,8,24,12,25,0.00,4,,154
2013-12-21,77,76,75,73,73,72,94,91,89,29.98,29.91,29.83,9,5,3,18,11,33,0.00,2,,173
2013-12-22,78,71,62,75,73,61,100,91,83,30.07,29.96,29.88,9,4,2,20,10,30,0.00,2,,219
2013-12-23,68,62,55,61,55,46,94,78,68,30.34,30.21,30.07,10,8,1,20,11,29,0.00,8,,338
2013-12-24,59,56,53,48,44,39,77,63,51,30.42,30.35,30.31,10,10,10,31,16,37,0.00,4,,18
2013-12-25,60,58,55,52,47,43,82,64,55,30.31,30.26,30.22,10,10,6,22,13,25,0.00,7,,44
2013-12-26,62,60,57,55,49,41,77,65,51,30.29,30.24,30.19,10,10,9,21,13,25,0.00,5,,30
2013-12-27,68,65,62,63,59,55,94,80,68,30.29,30.22,30.17,10,9,4,29,16,32,0.00,8,,44
2013-12-28,75,70,64,72,66,59,100,89,83,30.17,30.01,29.89,10,6,0,37,24,43,0.00,8,Fog,113
2013-12-29,64,62,60,59,55,52,88,78,68,30.11,30.04,29.94,10,10,9,16,8,25,0.00,6,,333
2013-12-30,68,65,62,59,56,52,77,71,68,30.24,30.16,30.08,10,10,9,20,8,22,0.00,4,,73
2013-12-31,68,65,62,61,55,50,83,73,59,30.35,30.28,30.24,10,10,10,21,13,25,0.00,8,,45